createdAt,value
2018-10-12T00:01:27.691Z,17.49
2018-10-12T00:03:56.915Z,17.45
2018-10-12T00:06:25.603Z,17.43
2018-10-12T00:08:54.171Z,17.37
2018-10-12T00:11:22.863Z,17.40
2018-10-12T00:13:51.890Z,17.44
2018-10-12T00:16:20.507Z,17.40
2018-10-12T00:18:49.218Z,17.42
2018-10-12T00:21:17.880Z,17.47
2018-10-12T00:23:46.515Z,17.47
2018-10-12T00:26:15.091Z,17.52
2018-10-12T00:28:43.676Z,17.44
2018-10-12T00:31:12.313Z,17.36
2018-10-12T00:33:41.893Z,17.30
2018-10-12T00:36:10.537Z,17.36
2018-10-12T00:38:39.121Z,17.34
2018-10-12T00:41:08.237Z,17.49
2018-10-12T00:43:36.772Z,17.56
2018-10-12T00:46:05.457Z,17.66
2018-10-12T00:48:34.057Z,17.70
2018-10-12T00:51:02.642Z,17.66
2018-10-12T00:53:31.286Z,17.52
2018-10-12T00:56:00.003Z,17.44
2018-10-12T00:58:28.545Z,17.22
2018-10-12T01:00:57.226Z,17.20
2018-10-12T01:03:26.047Z,17.18
2018-10-12T01:05:54.877Z,17.17
2018-10-12T01:08:24.158Z,17.21
2018-10-12T01:10:52.852Z,17.12
2018-10-12T01:13:21.572Z,17.16
2018-10-12T01:15:50.781Z,17.21
2018-10-12T01:18:19.460Z,17.31
2018-10-12T01:23:26.044Z,17.55
2018-10-12T01:25:54.751Z,17.67
2018-10-12T01:28:23.425Z,17.63
2018-10-12T01:30:52.130Z,17.61
2018-10-12T01:33:20.726Z,17.65
2018-10-12T01:35:49.428Z,17.67
2018-10-12T01:38:17.992Z,17.58
2018-10-12T01:40:46.646Z,17.56
2018-10-12T01:43:15.255Z,17.54
2018-10-12T01:45:43.920Z,17.56
2018-10-12T01:48:12.547Z,17.53
2018-10-12T01:50:41.860Z,17.50
2018-10-12T01:53:11.105Z,17.47
2018-10-12T01:55:39.675Z,17.37
2018-10-12T01:58:08.587Z,17.25
2018-10-12T02:00:37.256Z,17.20
2018-10-12T02:03:05.832Z,17.24
2018-10-12T02:05:34.454Z,17.28
2018-10-12T02:08:03.026Z,17.44
2018-10-12T02:10:31.682Z,17.52
2018-10-12T02:13:00.297Z,17.44
2018-10-12T02:15:29.333Z,17.39
2018-10-12T02:17:57.852Z,17.33
2018-10-12T02:20:26.371Z,17.22
2018-10-12T02:22:55.048Z,17.22
2018-10-12T02:25:23.640Z,17.33
2018-10-12T02:27:52.304Z,17.42
2018-10-12T02:30:20.882Z,17.53
2018-10-12T02:32:49.516Z,17.52
2018-10-12T02:35:18.155Z,17.42
2018-10-12T02:37:46.791Z,17.36
2018-10-12T02:40:15.662Z,17.38
2018-10-12T02:42:44.966Z,17.40
2018-10-12T02:45:13.535Z,17.44
2018-10-12T02:47:42.160Z,17.50
2018-10-12T02:50:11.735Z,17.53
2018-10-12T02:52:40.526Z,17.51
2018-10-12T02:55:09.147Z,17.37
2018-10-12T02:57:37.755Z,17.41
2018-10-12T03:00:06.461Z,17.31
2018-10-12T03:02:35.664Z,17.24
2018-10-12T03:05:04.380Z,17.23
2018-10-12T03:07:33.030Z,17.26
2018-10-12T03:10:01.706Z,17.22
2018-10-12T03:12:30.355Z,17.23
2018-10-12T03:14:59.190Z,17.30
2018-10-12T03:17:28.105Z,17.43
2018-10-12T03:19:56.720Z,17.50
2018-10-12T03:22:25.276Z,17.43
2018-10-12T03:24:53.871Z,17.31
2018-10-12T03:27:22.529Z,17.40
2018-10-12T03:29:51.101Z,17.50
2018-10-12T03:32:19.688Z,17.57
2018-10-12T03:34:48.459Z,17.44
2018-10-12T03:37:17.415Z,17.16
2018-10-12T03:39:45.982Z,17.11
2018-10-12T03:42:14.647Z,17.01
2018-10-12T03:44:43.224Z,16.91
2018-10-12T03:47:12.401Z,16.74
2018-10-12T03:49:41.043Z,16.71
2018-10-12T03:52:10.876Z,16.71
2018-10-12T03:54:39.617Z,16.63
2018-10-12T03:57:08.676Z,16.65
2018-10-12T03:59:37.540Z,16.59
2018-10-12T04:02:06.171Z,16.72
2018-10-12T04:04:34.701Z,16.75
2018-10-12T04:07:03.214Z,16.65
2018-10-12T04:09:32.692Z,16.73
2018-10-12T04:12:01.793Z,16.67
2018-10-12T04:14:30.441Z,16.55
2018-10-12T04:16:59.236Z,16.44
2018-10-12T04:19:27.787Z,16.40
2018-10-12T04:21:56.483Z,16.41
2018-10-12T04:24:25.168Z,16.24
2018-10-12T04:26:53.718Z,16.04
2018-10-12T04:29:22.338Z,16.04
2018-10-12T04:31:50.950Z,15.82
2018-10-12T04:34:20.123Z,15.54
2018-10-12T04:36:48.702Z,15.32
2018-10-12T04:39:28.472Z,15.10
2018-10-12T04:41:57.675Z,14.92
2018-10-12T04:44:26.582Z,14.74
2018-10-12T04:46:55.311Z,14.64
2018-10-12T04:49:24.018Z,14.43
2018-10-12T04:51:56.293Z,14.32
2018-10-12T04:54:25.305Z,14.19
2018-10-12T04:56:53.980Z,14.18
2018-10-12T04:59:22.800Z,14.31
2018-10-12T05:01:51.928Z,14.43
2018-10-12T05:04:20.591Z,14.37
2018-10-12T05:06:49.232Z,14.49
2018-10-12T05:09:17.876Z,14.55
2018-10-12T05:11:46.555Z,14.75
2018-10-12T05:14:15.197Z,14.87
2018-10-12T05:16:44.400Z,15.07
2018-10-12T05:19:13.735Z,15.13
2018-10-12T05:21:42.875Z,15.21
2018-10-12T05:24:11.507Z,15.29
2018-10-12T05:26:40.038Z,15.35
2018-10-12T05:29:08.696Z,15.33
2018-10-12T05:31:37.317Z,15.31
2018-10-12T05:34:05.978Z,15.49
2018-10-12T05:36:34.693Z,15.60
2018-10-12T05:39:03.485Z,15.78
2018-10-12T05:41:32.136Z,15.93
2018-10-12T05:44:00.834Z,16.04
2018-10-12T05:46:29.367Z,16.14
2018-10-12T05:49:09.098Z,16.08
2018-10-12T05:51:37.816Z,16.12
2018-10-12T05:54:06.602Z,16.18
2018-10-12T05:56:36.882Z,16.26
2018-10-12T05:59:06.383Z,16.14
2018-10-12T06:01:35.017Z,16.07
2018-10-12T06:04:03.740Z,15.99
2018-10-12T06:06:32.375Z,15.97
2018-10-12T06:09:01.286Z,15.93
2018-10-12T06:11:30.123Z,15.87
2018-10-12T06:13:58.705Z,15.93
2018-10-12T06:16:28.005Z,16.05
2018-10-12T06:18:56.678Z,16.03
2018-10-12T06:21:25.884Z,15.96
2018-10-12T06:23:54.516Z,15.80
2018-10-12T06:26:23.235Z,15.81
2018-10-12T06:28:51.794Z,15.85
2018-10-12T06:31:20.336Z,15.83
2018-10-12T06:33:49.501Z,15.91
2018-10-12T06:36:18.284Z,15.99
2018-10-12T06:38:46.943Z,16.16
2018-10-12T06:41:15.603Z,16.33
2018-10-12T06:43:44.167Z,16.49
2018-10-12T06:46:13.095Z,16.38
2018-10-12T06:48:42.425Z,16.27
2018-10-12T06:51:11.811Z,16.20
2018-10-12T06:53:40.379Z,16.41
2018-10-12T06:56:09.030Z,16.42
2018-10-12T06:58:37.713Z,16.47
2018-10-12T07:01:06.440Z,16.56
2018-10-12T07:03:35.135Z,16.58
2018-10-12T07:06:04.067Z,16.64
2018-10-12T07:08:32.897Z,16.74
2018-10-12T07:11:01.467Z,16.85
2018-10-12T07:13:30.165Z,17.03
2018-10-12T07:15:58.814Z,17.23
2018-10-12T07:18:28.204Z,17.44
2018-10-12T07:20:56.783Z,17.71
2018-10-12T07:23:25.422Z,17.83
2018-10-12T07:25:54.179Z,17.95
2018-10-12T07:28:22.930Z,18.13
2018-10-12T07:30:51.661Z,18.45
2018-10-12T07:33:20.311Z,18.69
2018-10-12T07:35:48.881Z,18.77
2018-10-12T07:38:17.496Z,18.86
2018-10-12T07:40:46.120Z,19.13
2018-10-12T07:43:14.656Z,19.45
2018-10-12T07:45:43.302Z,19.63
2018-10-12T07:48:12.678Z,19.79
2018-10-12T07:50:42.056Z,19.99
2018-10-12T07:53:10.615Z,20.12
2018-10-12T07:55:39.193Z,20.20
2018-10-12T07:58:09.109Z,20.27
2018-10-12T08:00:37.797Z,20.36
2018-10-12T08:03:06.563Z,20.43
2018-10-12T08:05:35.140Z,20.59
2018-10-12T08:08:03.767Z,20.72
2018-10-12T08:10:32.365Z,20.96
2018-10-12T08:13:01.029Z,21.21
2018-10-12T08:15:29.615Z,21.12
2018-10-12T08:17:58.384Z,21.27
2018-10-12T08:20:27.944Z,21.37
2018-10-12T08:22:56.505Z,21.61
2018-10-12T08:25:25.135Z,21.76
2018-10-12T08:27:53.785Z,21.85
2018-10-12T08:30:23.316Z,21.86
2018-10-12T08:32:52.156Z,22.07
2018-10-12T08:35:22.246Z,22.22
2018-10-12T08:37:51.434Z,22.16
2018-10-12T08:40:20.252Z,22.33
2018-10-12T08:42:48.835Z,22.61
2018-10-12T08:45:17.670Z,22.68
2018-10-12T08:47:46.416Z,22.78
2018-10-12T08:50:15.005Z,22.62
2018-10-12T08:52:43.690Z,22.84
2018-10-12T08:55:13.948Z,23.03
2018-10-12T08:57:44.614Z,23.22
2018-10-12T09:00:13.904Z,23.21
2018-10-12T09:02:43.560Z,23.05
2018-10-12T09:05:12.047Z,23.06
2018-10-12T09:07:40.617Z,23.04
2018-10-12T09:10:09.659Z,23.12
2018-10-12T09:12:38.790Z,23.14
2018-10-12T09:15:08.071Z,23.12
2018-10-12T09:17:36.966Z,22.97
2018-10-12T09:20:05.996Z,22.75
2018-10-12T09:22:34.674Z,22.55
2018-10-12T09:25:03.181Z,22.41
2018-10-12T09:27:32.756Z,22.21
2018-10-12T09:30:01.440Z,22.37
2018-10-12T09:32:31.299Z,22.54
2018-10-12T09:34:59.820Z,22.55
2018-10-12T09:37:28.360Z,22.62
2018-10-12T09:39:57.035Z,22.74
2018-10-12T09:42:25.734Z,22.87
2018-10-12T09:44:54.861Z,22.95
2018-10-12T09:47:23.671Z,23.24
2018-10-12T09:49:52.441Z,23.56
2018-10-12T09:52:21.112Z,23.69
2018-10-12T09:54:49.720Z,23.80
2018-10-12T09:57:23.649Z,24.02
2018-10-12T09:59:52.345Z,24.12
2018-10-12T10:03:26.202Z,24.09
2018-10-12T10:05:55.620Z,23.88
2018-10-12T10:08:24.296Z,23.88
2018-10-12T10:10:52.897Z,24.08
2018-10-12T10:13:21.669Z,24.29
2018-10-12T10:15:50.334Z,24.62
2018-10-12T10:18:19.993Z,24.77
2018-10-12T10:20:48.740Z,24.73
2018-10-12T10:23:17.454Z,24.67
2018-10-12T10:25:46.141Z,24.47
2018-10-12T10:28:14.799Z,24.59
2018-10-12T10:30:43.674Z,24.70
2018-10-12T10:33:12.503Z,24.83
2018-10-12T10:35:41.647Z,24.91
2018-10-12T10:38:10.274Z,25.08
2018-10-12T10:40:38.974Z,25.15
2018-10-12T10:43:08.231Z,25.29
2018-10-12T10:45:37.365Z,25.35
2018-10-12T10:48:06.070Z,25.19
2018-10-12T10:50:34.739Z,25.02
2018-10-12T10:53:03.394Z,25.06
2018-10-12T10:55:32.095Z,25.24
2018-10-12T10:58:00.629Z,25.14
2018-10-12T11:00:29.249Z,25.01
2018-10-12T11:02:57.821Z,25.13
2018-10-12T11:05:26.441Z,25.34
2018-10-12T11:07:55.034Z,25.49
2018-10-12T11:10:23.819Z,25.56
2018-10-12T11:12:53.066Z,25.61
2018-10-12T11:15:22.368Z,25.50
2018-10-12T11:17:51.696Z,25.64
2018-10-12T11:20:20.429Z,25.76
2018-10-12T11:22:48.975Z,25.76
2018-10-12T11:25:17.528Z,25.86
2018-10-12T11:27:46.145Z,25.85
2018-10-12T11:30:14.885Z,25.86
2018-10-12T11:32:44.260Z,25.88
2018-10-12T11:35:13.743Z,25.98
2018-10-12T11:37:42.925Z,25.98
2018-10-12T11:40:11.628Z,25.89
2018-10-12T11:42:51.424Z,25.92
2018-10-12T11:45:20.166Z,25.73
2018-10-12T11:47:48.864Z,25.64
2018-10-12T11:50:18.434Z,25.67
2018-10-12T11:52:47.163Z,25.76
2018-10-12T11:55:15.821Z,25.74
2018-10-12T11:57:44.400Z,25.78
2018-10-12T12:00:13.950Z,25.86
2018-10-12T12:02:42.654Z,25.94
2018-10-12T12:05:11.272Z,25.78
2018-10-12T12:07:39.919Z,25.63
2018-10-12T12:10:09.716Z,25.77
2018-10-12T12:12:38.314Z,25.82
2018-10-12T12:15:07.039Z,25.73
2018-10-12T12:17:35.569Z,25.80
2018-10-12T12:20:04.160Z,25.97
2018-10-12T12:22:32.726Z,26.03
2018-10-12T12:25:01.254Z,26.02
2018-10-12T12:27:29.834Z,25.96
2018-10-12T12:29:58.388Z,26.03
2018-10-12T12:32:26.948Z,26.16
2018-10-12T12:34:55.581Z,26.18
2018-10-12T12:37:24.046Z,26.08
2018-10-12T12:39:52.625Z,26.12
2018-10-12T12:42:21.243Z,26.11
2018-10-12T12:44:49.814Z,26.16
2018-10-12T12:47:18.431Z,26.10
2018-10-12T12:49:46.995Z,26.19
2018-10-12T12:52:15.567Z,26.21
2018-10-12T12:54:44.919Z,26.17
2018-10-12T12:57:13.886Z,26.18
2018-10-12T12:59:42.440Z,26.16
2018-10-12T13:02:11.561Z,26.03
2018-10-12T13:04:40.946Z,26.00
2018-10-12T13:07:09.523Z,26.11
2018-10-12T13:09:38.164Z,26.11
2018-10-12T13:12:06.873Z,26.04
2018-10-12T13:14:35.579Z,26.03
2018-10-12T13:17:04.159Z,25.96
2018-10-12T13:19:32.763Z,25.93
2018-10-12T13:22:01.492Z,26.00
2018-10-12T13:24:30.050Z,26.06
2018-10-12T13:26:58.635Z,26.15
2018-10-12T13:29:27.390Z,26.18
2018-10-12T13:31:56.274Z,26.03
2018-10-12T13:34:24.897Z,26.04
2018-10-12T13:36:53.595Z,25.89
2018-10-12T13:39:22.765Z,25.96
2018-10-12T13:41:51.310Z,26.00
2018-10-12T13:44:19.936Z,25.96
2018-10-12T13:46:49.059Z,25.90
2018-10-12T13:49:18.830Z,25.97
2018-10-12T13:51:47.579Z,26.03
2018-10-12T13:54:16.249Z,25.86
2018-10-12T13:56:45.269Z,25.78
2018-10-12T13:59:14.058Z,25.70
2018-10-12T14:01:43.200Z,25.78
2018-10-12T14:04:12.079Z,25.84
2018-10-12T14:06:40.680Z,25.93
2018-10-12T14:09:09.349Z,25.90
2018-10-12T14:11:37.996Z,25.88
2018-10-12T14:14:06.608Z,25.89
2018-10-12T14:16:35.196Z,25.78
2018-10-12T14:19:03.954Z,25.77
2018-10-12T14:21:32.351Z,25.71
2018-10-12T14:24:00.920Z,25.64
2018-10-12T14:26:29.615Z,25.69
2018-10-12T14:28:58.184Z,25.83
2018-10-12T14:31:26.864Z,25.94
2018-10-12T14:33:55.444Z,26.00
2018-10-12T14:36:24.918Z,25.80
2018-10-12T14:38:54.220Z,25.66
2018-10-12T14:41:22.755Z,25.93
2018-10-12T14:43:51.471Z,25.84
2018-10-12T14:46:20.000Z,25.76
2018-10-12T14:48:48.915Z,25.87
2018-10-12T14:51:17.465Z,25.91
2018-10-12T14:53:46.095Z,25.69
2018-10-12T14:56:15.466Z,25.72
2018-10-12T14:58:44.377Z,25.68
2018-10-12T15:01:12.928Z,25.69
2018-10-12T15:03:41.486Z,25.58
2018-10-12T15:06:10.060Z,25.62
2018-10-12T15:08:38.704Z,25.58
2018-10-12T15:11:07.436Z,25.36
2018-10-12T15:13:36.079Z,25.36
2018-10-12T15:16:05.245Z,25.36
2018-10-12T15:18:34.821Z,25.32
2018-10-12T15:21:03.412Z,25.35
2018-10-12T15:23:32.915Z,25.34
2018-10-12T15:26:01.594Z,25.18
2018-10-12T15:28:30.210Z,25.13
2018-10-12T15:30:58.775Z,25.17
2018-10-12T15:33:28.210Z,25.03
2018-10-12T15:35:56.812Z,24.87
2018-10-12T15:38:25.974Z,24.88
2018-10-12T15:40:55.194Z,24.90
2018-10-12T15:43:23.922Z,24.79
2018-10-12T15:45:52.564Z,24.69
2018-10-12T15:48:22.063Z,24.54
2018-10-12T15:50:51.244Z,24.56
2018-10-12T15:53:19.979Z,24.62
2018-10-12T15:55:48.860Z,24.53
2018-10-12T15:58:17.618Z,24.36
2018-10-12T16:00:46.447Z,24.27
2018-10-12T16:03:15.468Z,24.21
2018-10-12T16:05:44.236Z,23.95
2018-10-12T16:08:12.912Z,23.71
2018-10-12T16:10:41.578Z,23.50
2018-10-12T16:13:10.184Z,23.34
2018-10-12T16:15:38.768Z,23.27
2018-10-12T16:18:07.452Z,23.23
2018-10-12T16:20:36.029Z,23.28
2018-10-12T16:23:04.576Z,23.24
2018-10-12T16:25:54.754Z,23.33
2018-10-12T16:28:24.002Z,23.39
2018-10-12T16:30:54.273Z,23.38
2018-10-12T16:33:24.027Z,23.38
2018-10-12T16:35:54.009Z,23.34
2018-10-12T16:38:22.532Z,23.17
2018-10-12T16:40:51.505Z,23.07
2018-10-12T16:43:20.089Z,22.94
2018-10-12T16:45:50.277Z,22.92
2018-10-12T16:48:19.012Z,22.85
2018-10-12T16:50:47.903Z,22.71
2018-10-12T16:53:16.518Z,22.65
2018-10-12T16:55:46.626Z,22.87
2018-10-12T16:58:16.102Z,22.93
2018-10-12T17:00:45.695Z,22.87
2018-10-12T17:03:14.237Z,22.83
2018-10-12T17:05:43.008Z,22.77
2018-10-12T17:08:11.974Z,22.76
2018-10-12T17:10:40.547Z,22.64
2018-10-12T17:13:09.314Z,22.55
2018-10-12T17:15:38.144Z,22.54
2018-10-12T17:18:06.884Z,22.46
2018-10-12T17:20:36.331Z,22.35
2018-10-12T17:23:05.058Z,22.23
2018-10-12T17:25:33.658Z,22.21
2018-10-12T17:28:02.186Z,22.14
2018-10-12T17:30:30.981Z,22.08
2018-10-12T17:32:59.670Z,22.08
2018-10-12T17:35:28.185Z,22.04
2018-10-12T17:37:57.870Z,22.00
2018-10-12T17:40:26.509Z,21.98
2018-10-12T17:42:55.131Z,21.81
2018-10-12T17:45:24.228Z,21.79
2018-10-12T17:47:53.889Z,21.67
2018-10-12T17:50:22.434Z,21.63
2018-10-12T17:52:51.142Z,21.50
2018-10-12T17:55:19.962Z,21.39
2018-10-12T17:57:49.456Z,21.28
2018-10-12T18:00:18.218Z,21.23
2018-10-12T18:02:46.589Z,21.09
2018-10-12T18:05:15.904Z,21.02
2018-10-12T18:07:44.533Z,20.92
2018-10-12T18:10:13.124Z,20.74
2018-10-12T18:12:43.005Z,20.64
2018-10-12T18:15:13.118Z,20.50
2018-10-12T18:17:41.889Z,20.47
2018-10-12T18:20:11.869Z,20.32
2018-10-12T18:22:40.473Z,20.13
2018-10-12T18:25:09.158Z,19.96
2018-10-12T18:27:37.777Z,19.91
2018-10-12T18:30:06.731Z,19.85
2018-10-12T18:32:35.325Z,19.73
2018-10-12T18:35:04.078Z,19.76
2018-10-12T18:37:32.758Z,19.83
2018-10-12T18:40:01.522Z,19.87
2018-10-12T18:42:30.292Z,19.91
2018-10-12T18:44:59.664Z,19.86
2018-10-12T18:47:28.188Z,19.92
2018-10-12T18:49:56.743Z,19.95
2018-10-12T18:52:25.520Z,19.97
2018-10-12T18:54:54.195Z,20.01
2018-10-12T18:57:22.853Z,20.09
2018-10-12T18:59:51.595Z,20.06
2018-10-12T19:02:20.242Z,20.03
2018-10-12T19:04:49.021Z,20.00
2018-10-12T19:07:18.484Z,20.02
2018-10-12T19:09:47.333Z,20.15
2018-10-12T19:12:15.993Z,20.14
2018-10-12T19:14:44.777Z,20.01
2018-10-12T19:17:13.418Z,19.82
2018-10-12T19:19:42.091Z,19.64
2018-10-12T19:22:10.679Z,19.43
2018-10-12T19:24:39.354Z,19.37
2018-10-12T19:27:08.761Z,19.32
2018-10-12T19:29:37.423Z,19.22
2018-10-12T19:32:06.127Z,19.09
2018-10-12T19:34:35.567Z,18.97
2018-10-12T19:37:04.232Z,18.84
2018-10-12T19:39:32.914Z,18.68
2018-10-12T19:42:01.561Z,18.63
2018-10-12T19:44:30.335Z,19.04
2018-10-12T19:46:58.978Z,19.32
2018-10-12T19:49:27.549Z,19.46
2018-10-12T19:51:56.133Z,19.55
2018-10-12T19:54:24.740Z,19.60
2018-10-12T19:56:53.337Z,19.67
2018-10-12T19:59:22.028Z,19.74
2018-10-12T20:01:51.489Z,19.67
2018-10-12T20:04:20.929Z,19.58
2018-10-12T20:06:49.593Z,19.72
2018-10-12T20:09:18.928Z,19.81
2018-10-12T20:11:47.654Z,19.93
2018-10-12T20:14:16.387Z,19.88
2018-10-12T20:16:45.028Z,19.87
2018-10-12T20:19:13.620Z,19.92
2018-10-12T20:21:42.158Z,19.91
2018-10-12T20:24:10.874Z,20.06
2018-10-12T20:26:39.518Z,20.17
2018-10-12T20:29:08.244Z,20.21
2018-10-12T20:31:36.944Z,20.14
2018-10-12T20:34:05.781Z,20.25
2018-10-12T20:36:34.392Z,20.29
2018-10-12T20:39:03.028Z,20.27
2018-10-12T20:41:31.533Z,20.22
2018-10-12T20:44:00.224Z,20.20
2018-10-12T20:46:29.615Z,20.04
2018-10-12T20:48:58.259Z,20.11
2018-10-12T20:51:26.970Z,20.13
2018-10-12T20:53:55.712Z,20.20
2018-10-12T20:56:25.298Z,20.20
2018-10-12T20:58:53.900Z,20.20
2018-10-12T21:01:22.559Z,20.14
2018-10-12T21:03:51.264Z,20.00
2018-10-12T21:06:19.797Z,19.90
2018-10-12T21:08:48.343Z,19.78
2018-10-12T21:11:16.993Z,19.75
2018-10-12T21:13:46.554Z,19.81
2018-10-12T21:16:15.763Z,19.87
2018-10-12T21:18:44.388Z,19.90
2018-10-12T21:21:12.978Z,19.98
2018-10-12T21:23:42.304Z,20.06
2018-10-12T21:26:11.233Z,19.99
2018-10-12T21:28:39.979Z,19.84
2018-10-12T21:31:08.742Z,19.80
2018-10-12T21:33:37.372Z,19.86
2018-10-12T21:36:06.078Z,19.79
2018-10-12T21:38:35.027Z,19.79
2018-10-12T21:41:03.573Z,19.92
2018-10-12T21:43:32.307Z,19.93
2018-10-12T21:46:00.959Z,20.00
2018-10-12T21:48:29.579Z,20.05
2018-10-12T21:50:59.361Z,19.93
2018-10-12T21:53:28.028Z,19.84
2018-10-12T21:55:56.788Z,19.86
2018-10-12T21:58:25.510Z,19.77
2018-10-12T22:01:04.483Z,19.62
2018-10-12T22:03:34.856Z,19.53
2018-10-12T22:06:03.519Z,19.56
2018-10-12T22:08:37.416Z,19.69
2018-10-12T22:11:06.778Z,19.75
2018-10-12T22:13:35.954Z,19.72
2018-10-12T22:16:05.422Z,19.63
2018-10-12T22:18:34.108Z,19.61
2018-10-12T22:21:05.114Z,19.55
2018-10-12T22:23:33.787Z,19.41
2018-10-12T22:26:02.850Z,19.37
2018-10-12T22:28:31.555Z,19.36
2018-10-12T22:31:00.192Z,19.24
2018-10-12T22:33:28.994Z,19.21
2018-10-12T22:35:57.490Z,19.31
2018-10-12T22:38:26.253Z,19.38
2018-10-12T22:40:55.078Z,19.57
2018-10-12T22:43:23.845Z,19.67
2018-10-12T22:45:52.824Z,19.70
2018-10-12T22:48:21.479Z,19.60
2018-10-12T22:50:50.971Z,19.56
2018-10-12T22:53:19.607Z,19.70
2018-10-12T22:55:48.748Z,19.66
2018-10-12T22:58:17.393Z,19.72
2018-10-12T23:00:47.254Z,19.87
2018-10-12T23:03:16.658Z,19.79
2018-10-12T23:05:45.472Z,19.72
2018-10-12T23:08:14.937Z,19.70
2018-10-12T23:10:43.912Z,19.69
2018-10-12T23:13:12.589Z,19.70
2018-10-12T23:15:41.619Z,19.63
2018-10-12T23:18:10.171Z,19.60
2018-10-12T23:20:38.981Z,19.52
2018-10-12T23:23:07.621Z,19.61
2018-10-12T23:25:36.307Z,19.81
2018-10-12T23:28:04.961Z,19.77
2018-10-12T23:30:33.773Z,19.86
2018-10-12T23:33:13.493Z,19.98
2018-10-12T23:35:42.222Z,20.00
2018-10-12T23:38:11.692Z,19.88
2018-10-12T23:40:40.387Z,19.81
2018-10-12T23:43:09.602Z,19.70
2018-10-12T23:45:38.461Z,19.67
2018-10-12T23:48:07.156Z,19.70
2018-10-12T23:50:36.069Z,19.64
2018-10-12T23:53:05.373Z,19.60
2018-10-12T23:55:34.126Z,19.55
2018-10-12T23:58:02.903Z,19.44
